Pagina principale
METAR-TAF:

METAR-TAF

Aeroporti :

Fort-de-France, Martinica

Aeroporto della Martinica Aimé Césaire

latitudine: 14-36N, longitudine: 061-00W, altezza: 5 m

Osservazione

Il bollettino è stato emesso 22 minuti fa, alle 06:00 UTC
Vento 10 kt da est
Temperature 23°C
Umidità 78%
Pressione 1016 hPa
Visibilità 10 km o più

METAR: TFFF 230600Z AUTO 08010KT 9999 BKN033/// BKN039/// OVC047/// ///TCU 23/19 Q1016 TEMPO 09015G25KT 4000 SHRA BECMG SCT015 BKN020

Ora: 02:22 (06:22 UTC)

Previsione

Il bollettino è stato emesso 2 ore e 22 minuti fa, alle 04:00 UTC
Previsione valida dal 23 alle 06 UTC al 24 alle 06 UTC
Vento 12 kt da est
Visibilità 10 km o più
Nubi sparse ad un'altezza di 1500 ft
Nuvoloso ad un'altezza di 2000 ft
Temporaneamente
dal 23 alle 06 UTC al 24 alle 03 UTC
Vento 15 kt da est con raffiche fino a 25 kt
Visibilità: 4000 m
rovesci di pioggia

TAF: TFFF 230400Z 2306/2406 08012KT 9999 SCT015 BKN020 TEMPO 2306/2403 09015G25KT 4000 SHRA

Osservazioni e previsioni meteorologiche di più di 4000 aeroporti (messaggi METAR e TAF).

Le stazioni disponibili sono rappresentate dai dischi gialli e rossi sulla carta.

Puntare il mouse per vedere il nome della stazione.

Clicca sopra per visualizzare le osservazioni e previsioni meteorologiche.

Per cambiare la mappa : fare clic sui pulsanti verdi con una croce nera per ingrandire, il pulsante verde con un trattino per diminuire, o sulla freccia verde per le mappe adiacenti.


METAR-TAF: